Time;durP1;ratioP1;P1;durP2;ratioP2;P2;SDS_P1;SDS_P2;PMS_P1;PMS_P2;Temp;Humidity;BMP_temperature;BMP_pressure;BME280_temperature;BME280_humidity;BME280_pressure;Samples;Min_cycle;Max_cycle;Signal;HPM_P1;HPM_P2
2022/06/08 00:00:08;;;;;;;31.40;15.40;;;;;;;;;;6188708;23;20030;-84
2022/06/08 00:02:35;;;;;;;29.27;16.10;;;;;;;;;;6188421;23;20021;-85
2022/06/08 00:05:06;;;;;;;25.27;15.32;;;;;;;;;;6187578;23;20026;-85
2022/06/08 00:07:33;;;;;;;27.40;15.02;;;;;;;;;;6187901;23;20006;-85
2022/06/08 00:10:01;;;;;;;28.17;14.48;;;;;;;;;;6188911;23;20024;-83
2022/06/08 00:12:28;;;;;;;30.23;16.25;;;;;;;;;;6189896;23;20100;-83
2022/06/08 00:14:55;;;;;;;28.92;15.93;;;;;;;;;;6188433;23;20014;-85
2022/06/08 00:17:23;;;;;;;34.13;16.38;;;;;;;;;;6188441;23;20018;-85
2022/06/08 00:19:50;;;;;;;27.63;15.38;;;;;;;;;;6188301;23;20026;-85
2022/06/08 00:22:18;;;;;;;31.02;15.75;;;;;;;;;;6186949;23;20026;-85
2022/06/08 00:24:45;;;;;;;36.75;17.75;;;;;;;;;;6187047;23;20009;-85
2022/06/08 00:27:12;;;;;;;34.00;16.50;;;;;;;;;;6186613;23;20034;-84
2022/06/08 00:29:40;;;;;;;34.95;17.00;;;;;;;;;;6187725;23;20002;-85
2022/06/08 00:32:08;;;;;;;30.98;16.52;;;;;;;;;;6186652;23;20073;-85
2022/06/08 00:34:35;;;;;;;33.67;17.23;;;;;;;;;;6186530;23;20092;-85
2022/06/08 00:37:03;;;;;;;22.35;14.18;;;;;;;;;;6187003;23;20029;-84
2022/06/08 00:39:30;;;;;;;33.50;17.02;;;;;;;;;;6187144;23;20029;-84
2022/06/08 00:41:59;;;;;;;37.65;17.50;;;;;;;;;;6186507;23;20006;-85
2022/06/08 00:44:54;;;;;;;30.02;15.95;;;;;;;;;;6185933;23;20010;-85
2022/06/08 00:47:27;;;;;;;40.70;16.90;;;;;;;;;;6184631;23;20009;-84
2022/06/08 00:50:06;;;;;;;29.08;15.63;;;;;;;;;;6186760;23;20006;-85
2022/06/08 00:52:34;;;;;;;26.90;14.13;;;;;;;;;;6185473;23;20025;-84
2022/06/08 00:55:04;;;;;;;29.58;16.40;;;;;;;;;;6185564;23;20913;-85
2022/06/08 00:57:35;;;;;;;39.10;18.05;;;;;;;;;;6185302;23;20018;-85
2022/06/08 01:00:11;;;;;;;35.83;17.08;;;;;;;;;;6185848;23;20022;-84
2022/06/08 01:02:39;;;;;;;36.88;17.85;;;;;;;;;;6185769;23;20703;-85
2022/06/08 01:05:28;;;;;;;32.78;15.82;;;;;;;;;;6186141;23;20029;-84
2022/06/08 01:07:58;;;;;;;29.23;15.85;;;;;;;;;;6186194;23;20006;-83
2022/06/08 01:10:33;;;;;;;34.75;17.90;;;;;;;;;;6184995;23;20021;-84
2022/06/08 01:13:04;;;;;;;34.75;17.45;;;;;;;;;;6184807;23;20283;-84
2022/06/08 01:15:33;;;;;;;36.58;16.52;;;;;;;;;;6185523;23;20018;-85
2022/06/08 01:18:00;;;;;;;38.03;18.17;;;;;;;;;;6185538;23;20006;-85
2022/06/08 01:20:28;;;;;;;31.60;16.95;;;;;;;;;;6186152;23;20029;-85
2022/06/08 01:22:55;;;;;;;31.55;16.90;;;;;;;;;;6186089;23;19994;-85
2022/06/08 01:25:23;;;;;;;35.78;17.90;;;;;;;;;;6185680;23;20018;-85
2022/06/08 01:28:06;;;;;;;33.40;16.85;;;;;;;;;;6185546;23;20006;-85
2022/06/08 01:30:44;;;;;;;32.08;16.63;;;;;;;;;;6186482;23;20008;-85
2022/06/08 01:33:32;;;;;;;30.58;16.70;;;;;;;;;;6185071;23;20022;-84
2022/06/08 01:36:16;;;;;;;33.70;16.05;;;;;;;;;;6185361;23;20041;-84
2022/06/08 01:38:59;;;;;;;31.05;15.43;;;;;;;;;;6185050;23;20037;-85
2022/06/08 01:41:35;;;;;;;29.95;16.50;;;;;;;;;;6186364;23;20025;-85
2022/06/08 01:44:08;;;;;;;30.52;16.05;;;;;;;;;;6185375;23;20010;-84
2022/06/08 01:46:40;;;;;;;29.58;15.85;;;;;;;;;;6184914;23;20025;-85
2022/06/08 01:49:11;;;;;;;27.17;15.02;;;;;;;;;;6185774;23;20031;-85
2022/06/08 01:52:00;;;;;;;27.88;15.35;;;;;;;;;;6184548;23;20010;-85
2022/06/08 01:54:28;;;;;;;31.65;16.15;;;;;;;;;;6183872;23;20049;-83
2022/06/08 01:56:55;;;;;;;33.95;16.27;;;;;;;;;;6184242;23;20077;-85
2022/06/08 01:59:45;;;;;;;29.20;16.42;;;;;;;;;;6184259;23;20018;-85
2022/06/08 02:02:22;;;;;;;31.70;15.48;;;;;;;;;;6180694;23;20018;-84
2022/06/08 02:04:53;;;;;;;30.17;16.13;;;;;;;;;;6181524;23;20013;-83
2022/06/08 02:07:23;;;;;;;31.80;16.52;;;;;;;;;;6181830;23;20018;-83
2022/06/08 02:09:51;;;;;;;32.85;16.45;;;;;;;;;;6181887;23;20018;-85
2022/06/08 02:12:18;;;;;;;31.45;16.50;;;;;;;;;;6181239;23;20014;-84
2022/06/08 02:14:51;;;;;;;31.75;15.80;;;;;;;;;;6182836;23;20017;-83
2022/06/08 02:17:24;;;;;;;39.08;17.98;;;;;;;;;;6182805;23;20050;-84
2022/06/08 02:19:56;;;;;;;34.92;16.42;;;;;;;;;;6182198;23;20009;-84
2022/06/08 02:22:31;;;;;;;42.70;18.25;;;;;;;;;;6181550;23;20014;-84
2022/06/08 02:25:01;;;;;;;35.58;17.45;;;;;;;;;;6181046;23;20018;-84
2022/06/08 02:27:38;;;;;;;38.72;17.88;;;;;;;;;;6183486;23;20029;-84
2022/06/08 02:30:08;;;;;;;35.13;17.85;;;;;;;;;;6183143;23;20002;-85
2022/06/08 02:35:30;;;;;;;34.60;17.60;;;;;;;;;;6183447;23;20045;-84
2022/06/08 02:38:01;;;;;;;35.90;17.50;;;;;;;;;;6181689;23;20002;-83
2022/06/08 02:40:30;;;;;;;35.88;17.92;;;;;;;;;;6182055;23;20022;-83
2022/06/08 02:43:00;;;;;;;35.47;17.70;;;;;;;;;;6181554;23;20010;-84
2022/06/08 02:45:30;;;;;;;37.40;18.02;;;;;;;;;;6182306;23;20014;-84
2022/06/08 02:48:01;;;;;;;39.97;18.80;;;;;;;;;;6182879;23;20022;-84
2022/06/08 02:50:29;;;;;;;31.80;17.25;;;;;;;;;;6180529;23;20014;-83
2022/06/08 02:53:09;;;;;;;34.17;16.95;;;;;;;;;;6181112;23;20658;-83
2022/06/08 02:55:42;;;;;;;36.78;18.15;;;;;;;;;;6181803;23;20018;-85
2022/06/08 02:58:16;;;;;;;38.85;19.35;;;;;;;;;;6180063;23;20091;-84
2022/06/08 03:00:53;;;;;;;36.17;18.90;;;;;;;;;;6179928;23;20034;-83
2022/06/08 03:03:28;;;;;;;40.50;18.15;;;;;;;;;;6178566;23;20139;-84
2022/06/08 03:05:58;;;;;;;39.08;18.33;;;;;;;;;;6180160;23;20034;-84
2022/06/08 03:08:27;;;;;;;38.78;19.25;;;;;;;;;;6180696;23;20014;-84
2022/06/08 03:10:55;;;;;;;44.92;19.45;;;;;;;;;;6181435;23;20022;-83
2022/06/08 03:13:26;;;;;;;41.53;19.38;;;;;;;;;;6181756;23;20034;-84
2022/06/08 03:15:55;;;;;;;43.10;20.35;;;;;;;;;;6180257;23;20022;-85
2022/06/08 03:18:23;;;;;;;59.20;22.80;;;;;;;;;;6181793;23;20002;-83
2022/06/08 03:20:50;;;;;;;42.00;19.85;;;;;;;;;;6182269;23;20002;-84
2022/06/08 03:23:18;;;;;;;47.05;21.58;;;;;;;;;;6182116;23;20045;-85
2022/06/08 03:25:45;;;;;;;45.17;20.77;;;;;;;;;;6179031;23;20070;-83
2022/06/08 03:28:13;;;;;;;53.17;24.48;;;;;;;;;;6179788;23;20042;-82
2022/06/08 03:30:40;;;;;;;36.17;20.55;;;;;;;;;;6181147;23;20006;-84
2022/06/08 03:33:08;;;;;;;42.08;22.10;;;;;;;;;;6180376;23;20010;-84
2022/06/08 03:35:36;;;;;;;48.08;22.23;;;;;;;;;;6179938;23;20014;-84
2022/06/08 03:38:04;;;;;;;37.17;19.42;;;;;;;;;;6180048;23;20026;-82
2022/06/08 03:40:32;;;;;;;42.50;21.55;;;;;;;;;;6178628;23;20006;-83
2022/06/08 03:42:59;;;;;;;44.28;22.80;;;;;;;;;;6178239;23;20078;-83
2022/06/08 03:45:28;;;;;;;43.40;23.40;;;;;;;;;;6179339;23;20018;-84
2022/06/08 03:47:55;;;;;;;43.08;21.30;;;;;;;;;;6180962;23;20038;-84
2022/06/08 03:50:25;;;;;;;59.90;26.33;;;;;;;;;;6180181;23;20013;-83
2022/06/08 03:52:55;;;;;;;46.20;25.08;;;;;;;;;;6177693;23;20639;-83
2022/06/08 03:55:23;;;;;;;46.80;23.58;;;;;;;;;;6181262;23;20046;-83
2022/06/08 03:57:51;;;;;;;49.72;25.77;;;;;;;;;;6180472;23;20024;-83
2022/06/08 04:00:19;;;;;;;55.60;24.73;;;;;;;;;;6179688;23;20022;-83
2022/06/08 04:02:48;;;;;;;41.53;23.30;;;;;;;;;;6154307;23;20126;-84
2022/06/08 04:05:16;;;;;;;53.03;24.85;;;;;;;;;;6179700;23;20025;-83
2022/06/08 04:07:43;;;;;;;49.15;26.08;;;;;;;;;;6179586;23;20024;-84
2022/06/08 04:10:11;;;;;;;46.33;24.60;;;;;;;;;;6178140;23;20026;-83
2022/06/08 04:12:38;;;;;;;47.47;26.38;;;;;;;;;;6181280;23;20014;-83
2022/06/08 04:15:07;;;;;;;43.15;25.15;;;;;;;;;;6180694;23;20061;-85
2022/06/08 04:17:34;;;;;;;48.88;25.73;;;;;;;;;;6181395;23;20025;-84
2022/06/08 04:20:01;;;;;;;45.90;25.10;;;;;;;;;;6181640;23;19986;-84
2022/06/08 04:22:31;;;;;;;50.65;26.88;;;;;;;;;;6180355;23;20065;-84
2022/06/08 04:25:00;;;;;;;42.13;23.65;;;;;;;;;;6180621;23;20018;-84
2022/06/08 04:27:27;;;;;;;48.22;25.48;;;;;;;;;;6183475;23;20017;-85
2022/06/08 04:29:55;;;;;;;45.00;24.42;;;;;;;;;;6183559;23;19998;-85
2022/06/08 04:32:22;;;;;;;46.00;24.95;;;;;;;;;;6184146;23;20017;-83
2022/06/08 04:34:50;;;;;;;45.10;24.75;;;;;;;;;;6183225;23;20062;-84
2022/06/08 04:37:18;;;;;;;43.20;23.92;;;;;;;;;;6183277;23;20010;-84
2022/06/08 04:39:45;;;;;;;43.15;25.17;;;;;;;;;;6183221;23;20010;-84
2022/06/08 04:42:16;;;;;;;39.90;24.00;;;;;;;;;;6183983;23;20046;-85
2022/06/08 04:44:44;;;;;;;37.92;22.92;;;;;;;;;;6183110;23;20014;-83
2022/06/08 04:47:11;;;;;;;35.22;21.52;;;;;;;;;;6184492;23;20117;-85
2022/06/08 04:49:38;;;;;;;36.22;21.50;;;;;;;;;;6185551;23;20002;-85
2022/06/08 04:52:06;;;;;;;34.42;21.63;;;;;;;;;;6183401;23;20014;-83
2022/06/08 04:54:33;;;;;;;35.05;22.00;;;;;;;;;;6183095;23;20022;-83
2022/06/08 04:57:01;;;;;;;35.70;21.95;;;;;;;;;;6184746;23;20014;-85
2022/06/08 04:59:28;;;;;;;33.22;21.17;;;;;;;;;;6181477;23;20018;-83
2022/06/08 05:01:55;;;;;;;39.58;21.55;;;;;;;;;;6181565;23;20014;-84
2022/06/08 05:04:23;;;;;;;32.13;20.17;;;;;;;;;;6180741;23;20021;-84
2022/06/08 05:06:50;;;;;;;36.10;20.33;;;;;;;;;;6185276;23;20018;-84
2022/06/08 05:09:17;;;;;;;31.65;20.63;;;;;;;;;;6181545;23;20006;-84
2022/06/08 05:11:45;;;;;;;33.30;19.70;;;;;;;;;;6180943;23;20014;-83
2022/06/08 05:14:13;;;;;;;29.15;18.30;;;;;;;;;;6181606;23;20022;-83
2022/06/08 05:16:40;;;;;;;33.38;19.33;;;;;;;;;;6180068;23;20010;-84
2022/06/08 05:19:08;;;;;;;29.55;17.80;;;;;;;;;;6181496;23;20021;-83
2022/06/08 05:21:36;;;;;;;29.50;18.15;;;;;;;;;;6181532;23;20014;-83
2022/06/08 05:24:05;;;;;;;26.42;17.25;;;;;;;;;;6182490;23;20016;-84
2022/06/08 05:26:33;;;;;;;30.30;17.77;;;;;;;;;;6185460;23;20046;-84
2022/06/08 05:29:00;;;;;;;25.25;17.35;;;;;;;;;;6180616;23;20006;-82
2022/06/08 05:31:28;;;;;;;24.92;16.90;;;;;;;;;;6176244;23;20022;-83
2022/06/08 05:33:57;;;;;;;31.63;17.85;;;;;;;;;;6179648;23;20010;-83
2022/06/08 05:36:24;;;;;;;26.77;16.42;;;;;;;;;;6182979;23;20046;-84
2022/06/08 05:38:54;;;;;;;24.92;16.55;;;;;;;;;;6182618;23;20029;-85
2022/06/08 05:41:21;;;;;;;29.13;18.08;;;;;;;;;;6183482;23;20109;-83
2022/06/08 05:43:49;;;;;;;27.45;16.20;;;;;;;;;;6179371;23;20006;-84
2022/06/08 05:46:17;;;;;;;25.63;17.40;;;;;;;;;;6184264;23;20065;-84
2022/06/08 05:48:44;;;;;;;28.40;18.20;;;;;;;;;;6181919;23;20068;-84
2022/06/08 05:51:53;;;;;;;29.48;17.17;;;;;;;;;;6179614;23;20006;-85
2022/06/08 05:54:42;;;;;;;28.55;17.58;;;;;;;;;;6181065;23;20022;-84
2022/06/08 05:57:12;;;;;;;28.05;17.30;;;;;;;;;;6178027;23;20863;-82
2022/06/08 05:59:41;;;;;;;25.90;16.75;;;;;;;;;;6181611;23;20006;-85
2022/06/08 06:02:11;;;;;;;25.20;16.45;;;;;;;;;;6183673;23;20014;-84
2022/06/08 06:04:39;;;;;;;25.40;16.33;;;;;;;;;;6180900;23;20014;-84
2022/06/08 06:07:06;;;;;;;22.65;15.32;;;;;;;;;;6180050;23;20011;-83
2022/06/08 06:09:37;;;;;;;22.73;14.82;;;;;;;;;;6179096;23;20023;-84
2022/06/08 06:12:11;;;;;;;21.23;14.43;;;;;;;;;;6179854;23;20050;-84
2022/06/08 06:14:39;;;;;;;18.95;14.32;;;;;;;;;;6179559;23;20749;-83
2022/06/08 06:17:06;;;;;;;24.45;14.40;;;;;;;;;;6181997;23;20022;-83
2022/06/08 06:19:33;;;;;;;19.23;12.63;;;;;;;;;;6181802;23;20010;-83
2022/06/08 06:22:04;;;;;;;22.40;13.00;;;;;;;;;;6181175;23;20021;-84
2022/06/08 06:24:32;;;;;;;19.42;13.38;;;;;;;;;;6182027;23;20046;-84
2022/06/08 06:26:59;;;;;;;22.05;12.63;;;;;;;;;;6179345;23;20010;-83
2022/06/08 06:29:27;;;;;;;17.40;12.18;;;;;;;;;;6180240;23;20006;-84
2022/06/08 06:31:55;;;;;;;19.05;12.20;;;;;;;;;;6179954;23;20423;-84
2022/06/08 06:34:25;;;;;;;15.57;10.60;;;;;;;;;;6180057;23;20028;-83
2022/06/08 06:36:53;;;;;;;20.63;10.45;;;;;;;;;;6179556;23;20011;-83
2022/06/08 06:39:23;;;;;;;18.80;11.30;;;;;;;;;;6177049;23;20060;-84
2022/06/08 06:41:51;;;;;;;16.48;11.10;;;;;;;;;;6179084;23;20014;-84
2022/06/08 06:44:18;;;;;;;16.25;10.88;;;;;;;;;;6176945;23;20048;-83
2022/06/08 06:46:45;;;;;;;15.20;10.13;;;;;;;;;;6162751;23;20073;-83
2022/06/08 06:49:13;;;;;;;13.18;9.10;;;;;;;;;;6162121;23;20105;-85
2022/06/08 06:51:40;;;;;;;14.80;9.40;;;;;;;;;;6158171;23;20878;-84
2022/06/08 06:54:10;;;;;;;13.38;9.45;;;;;;;;;;6159861;23;20058;-84
2022/06/08 06:56:37;;;;;;;14.13;7.90;;;;;;;;;;6159695;23;20030;-85
2022/06/08 06:59:05;;;;;;;15.25;8.15;;;;;;;;;;6157942;23;20102;-85
2022/06/08 07:01:34;;;;;;;11.95;7.38;;;;;;;;;;6163551;23;20026;-83
2022/06/08 07:04:02;;;;;;;11.15;7.80;;;;;;;;;;6164448;23;20024;-84
2022/06/08 07:06:32;;;;;;;14.18;7.85;;;;;;;;;;6165600;23;20017;-83
2022/06/08 07:08:59;;;;;;;9.45;7.20;;;;;;;;;;6166902;23;20033;-83
2022/06/08 07:11:40;;;;;;;11.90;7.53;;;;;;;;;;6166799;23;20053;-83
2022/06/08 07:14:09;;;;;;;11.93;7.40;;;;;;;;;;6167435;23;20026;-84
2022/06/08 07:16:36;;;;;;;12.90;7.10;;;;;;;;;;6166403;23;20018;-83
2022/06/08 07:19:09;;;;;;;9.20;6.88;;;;;;;;;;6164349;23;20033;-83
2022/06/08 07:21:38;;;;;;;10.27;6.65;;;;;;;;;;6162791;23;20025;-83
2022/06/08 07:24:18;;;;;;;13.55;6.55;;;;;;;;;;6163635;23;20018;-84
2022/06/08 07:26:45;;;;;;;10.65;6.47;;;;;;;;;;6170448;23;20041;-83
2022/06/08 07:29:13;;;;;;;11.43;6.20;;;;;;;;;;6167621;23;20033;-83
2022/06/08 07:31:41;;;;;;;9.73;5.80;;;;;;;;;;6168924;23;20070;-83
2022/06/08 07:34:12;;;;;;;8.98;5.63;;;;;;;;;;6168882;23;20026;-83
2022/06/08 07:36:39;;;;;;;11.55;5.53;;;;;;;;;;6167796;23;20360;-83
2022/06/08 07:39:06;;;;;;;8.43;5.43;;;;;;;;;;6169623;23;20014;-84
2022/06/08 07:41:34;;;;;;;8.50;5.18;;;;;;;;;;6170174;23;20018;-84
2022/06/08 07:44:03;;;;;;;12.05;5.40;;;;;;;;;;6166300;23;20014;-84
2022/06/08 07:46:31;;;;;;;8.00;5.40;;;;;;;;;;6163833;23;20085;-83
2022/06/08 07:51:44;;;;;;;9.18;4.97;;;;;;;;;;6166740;23;20081;-83
2022/06/08 07:54:14;;;;;;;9.02;5.00;;;;;;;;;;6163833;23;20026;-83
2022/06/08 07:56:41;;;;;;;7.53;4.65;;;;;;;;;;6166785;23;20018;-83
2022/06/08 07:59:09;;;;;;;9.48;4.60;;;;;;;;;;6165922;23;20874;-84
2022/06/08 08:01:36;;;;;;;10.23;4.90;;;;;;;;;;6166565;23;20010;-84
2022/06/08 08:04:04;;;;;;;7.85;4.75;;;;;;;;;;6167826;23;20025;-83
2022/06/08 08:06:31;;;;;;;7.47;4.75;;;;;;;;;;6167075;23;20022;-83
2022/06/08 08:09:01;;;;;;;7.95;4.32;;;;;;;;;;6167406;23;20010;-83
2022/06/08 08:11:28;;;;;;;9.48;4.47;;;;;;;;;;6168989;23;20495;-83
2022/06/08 08:13:56;;;;;;;7.07;3.80;;;;;;;;;;6166588;23;20014;-85
2022/06/08 08:16:23;;;;;;;6.18;4.20;;;;;;;;;;6166062;23;20014;-84
2022/06/08 08:18:53;;;;;;;7.07;3.75;;;;;;;;;;6165319;23;20029;-84
2022/06/08 08:21:21;;;;;;;7.93;3.92;;;;;;;;;;6166927;23;20018;-84
2022/06/08 08:23:48;;;;;;;7.82;4.25;;;;;;;;;;6165220;23;20045;-83
2022/06/08 08:26:15;;;;;;;8.65;3.90;;;;;;;;;;6163566;23;20029;-83
2022/06/08 08:28:43;;;;;;;15.02;4.10;;;;;;;;;;6170119;23;20004;-86
2022/06/08 08:31:11;;;;;;;7.05;4.10;;;;;;;;;;6170404;23;20089;-83
2022/06/08 08:33:43;;;;;;;7.72;3.75;;;;;;;;;;6168999;23;20153;-84
2022/06/08 08:36:11;;;;;;;8.93;3.60;;;;;;;;;;6167140;23;20026;-83
2022/06/08 08:38:39;;;;;;;7.88;3.72;;;;;;;;;;6166868;23;20013;-83
2022/06/08 08:42:20;;;;;;;9.38;3.70;;;;;;;;;;6169161;23;20029;-83
2022/06/08 08:43:59;;;;;;;6.78;3.72;;;;;;;;;;6170906;23;20111;-83
2022/06/08 08:46:43;;;;;;;6.03;3.58;;;;;;;;;;6171245;23;20089;-83
2022/06/08 08:49:23;;;;;;;7.65;4.00;;;;;;;;;;6171841;23;20010;-83
2022/06/08 08:52:01;;;;;;;5.20;3.30;;;;;;;;;;6172867;23;20070;-83
2022/06/08 08:54:30;;;;;;;7.18;3.45;;;;;;;;;;6172007;23;20014;-83
2022/06/08 08:57:13;;;;;;;8.23;3.67;;;;;;;;;;6171252;23;20010;-84
2022/06/08 08:59:45;;;;;;;7.50;2.95;;;;;;;;;;6170961;23;20583;-84
2022/06/08 09:02:15;;;;;;;9.43;3.33;;;;;;;;;;6170964;23;20057;-83
2022/06/08 09:04:47;;;;;;;16.50;3.63;;;;;;;;;;6173200;23;20451;-84
2022/06/08 09:07:16;;;;;;;8.82;3.25;;;;;;;;;;6172339;23;20026;-84
2022/06/08 09:09:44;;;;;;;6.65;3.10;;;;;;;;;;6171215;23;20011;-83
2022/06/08 09:12:18;;;;;;;11.90;3.53;;;;;;;;;;6171174;23;20080;-83
2022/06/08 09:14:58;;;;;;;10.77;3.60;;;;;;;;;;6175880;23;20014;-84
2022/06/08 09:17:36;;;;;;;9.63;3.45;;;;;;;;;;6172735;23;20848;-84
2022/06/08 09:20:24;;;;;;;8.93;3.83;;;;;;;;;;6174447;23;20021;-84
2022/06/08 09:22:57;;;;;;;6.65;3.30;;;;;;;;;;6163659;23;20026;-83
2022/06/08 09:25:26;;;;;;;7.50;3.70;;;;;;;;;;6167010;23;20572;-84
2022/06/08 09:27:55;;;;;;;12.32;3.80;;;;;;;;;;6169779;23;20018;-84
2022/06/08 09:30:28;;;;;;;9.63;3.50;;;;;;;;;;6172848;23;20733;-84
2022/06/08 09:33:09;;;;;;;5.20;3.38;;;;;;;;;;6172871;23;20752;-84
2022/06/08 09:35:40;;;;;;;10.38;3.55;;;;;;;;;;6173591;23;20025;-84
2022/06/08 09:38:13;;;;;;;7.05;3.38;;;;;;;;;;6177279;23;20046;-84
2022/06/08 09:40:45;;;;;;;9.23;3.33;;;;;;;;;;6172138;23;20022;-84
2022/06/08 09:43:38;;;;;;;9.85;3.85;;;;;;;;;;6181947;23;20006;-84
2022/06/08 09:51:25;;;;;;;6.95;3.05;;;;;;;;;;6170657;23;20022;-84
2022/06/08 09:52:16;;;;;;;9.43;3.22;;;;;;;;;;6173886;23;20037;-83
2022/06/08 09:54:51;;;;;;;7.80;3.00;;;;;;;;;;6170183;23;20096;-84
2022/06/08 09:57:39;;;;;;;10.57;3.70;;;;;;;;;;6168089;23;20067;-84
2022/06/08 10:00:29;;;;;;;8.68;3.15;;;;;;;;;;6169290;23;20022;-84
2022/06/08 10:03:05;;;;;;;8.38;2.83;;;;;;;;;;6168080;23;19998;-84
2022/06/08 10:05:45;;;;;;;8.25;2.80;;;;;;;;;;6168605;23;20018;-84
2022/06/08 10:08:28;;;;;;;9.15;2.45;;;;;;;;;;6174856;23;20025;-84
2022/06/08 10:11:03;;;;;;;9.32;2.45;;;;;;;;;;6173300;23;20044;-85
2022/06/08 10:13:40;;;;;;;11.25;2.70;;;;;;;;;;6179158;23;20014;-85
2022/06/08 10:16:13;;;;;;;12.43;2.35;;;;;;;;;;6180807;23;20073;-84
2022/06/08 10:18:43;;;;;;;12.32;2.13;;;;;;;;;;6175479;23;20045;-84
2022/06/08 10:21:25;;;;;;;8.73;2.38;;;;;;;;;;6173642;23;20025;-83
2022/06/08 10:24:01;;;;;;;8.35;2.53;;;;;;;;;;6168457;23;20034;-84
2022/06/08 10:26:35;;;;;;;10.50;2.45;;;;;;;;;;6175538;23;20020;-84
2022/06/08 10:29:06;;;;;;;7.63;2.20;;;;;;;;;;6180552;23;20048;-84
2022/06/08 10:31:41;;;;;;;11.25;2.33;;;;;;;;;;6178782;23;20024;-85
2022/06/08 10:34:17;;;;;;;9.75;2.38;;;;;;;;;;6172841;23;20042;-84
2022/06/08 10:36:47;;;;;;;8.02;2.20;;;;;;;;;;6172561;23;20024;-83
2022/06/08 10:39:15;;;;;;;8.43;2.00;;;;;;;;;;6170660;23;20028;-84
2022/06/08 10:44:49;;;;;;;8.07;1.90;;;;;;;;;;6176818;23;20033;-84
2022/06/08 10:47:17;;;;;;;;;;;;;;;;;;6169102;23;20018;-84
2022/06/08 10:49:50;;;;;;;7.60;1.73;;;;;;;;;;6162926;23;44246;-83
2022/06/08 10:52:21;;;;;;;5.30;1.70;;;;;;;;;;6163854;23;20320;-84
2022/06/08 10:54:53;;;;;;;8.00;1.67;;;;;;;;;;6166574;23;20077;-83
2022/06/08 10:57:37;;;;;;;9.77;2.10;;;;;;;;;;6167422;23;20860;-84
2022/06/08 11:00:23;;;;;;;7.07;1.42;;;;;;;;;;6171387;23;20018;-83
2022/06/08 11:02:53;;;;;;;8.50;2.17;;;;;;;;;;6164376;23;20025;-84
2022/06/08 11:05:35;;;;;;;7.85;1.92;;;;;;;;;;6163489;23;20775;-81
2022/06/08 11:08:04;;;;;;;13.50;2.10;;;;;;;;;;6160314;23;20060;-84
2022/06/08 11:10:56;;;;;;;10.40;2.05;;;;;;;;;;6162659;23;20093;-84
2022/06/08 11:13:51;;;;;;;10.67;2.17;;;;;;;;;;6166016;23;20818;-84
2022/06/08 11:16:27;;;;;;;8.30;2.25;;;;;;;;;;6159715;23;20033;-84
2022/06/08 11:19:01;;;;;;;5.47;1.80;;;;;;;;;;6162903;23;20022;-84
2022/06/08 11:21:41;;;;;;;12.10;2.13;;;;;;;;;;6162157;23;20025;-83
2022/06/08 11:24:17;;;;;;;9.35;2.05;;;;;;;;;;6161481;23;20077;-83
2022/06/08 11:26:49;;;;;;;8.20;2.20;;;;;;;;;;6164474;23;20022;-83
2022/06/08 11:29:17;;;;;;;9.43;1.85;;;;;;;;;;6165856;23;20022;-83
2022/06/08 11:31:50;;;;;;;10.98;2.45;;;;;;;;;;6164133;23;20125;-83
2022/06/08 11:34:26;;;;;;;11.50;2.63;;;;;;;;;;6162431;23;20053;-82
2022/06/08 11:37:09;;;;;;;8.43;2.38;;;;;;;;;;6166666;23;20022;-83
2022/06/08 11:39:42;;;;;;;7.88;2.53;;;;;;;;;;6163572;23;20858;-83
2022/06/08 11:42:25;;;;;;;6.30;2.10;;;;;;;;;;6165139;23;20033;-83
2022/06/08 11:45:15;;;;;;;6.95;2.17;;;;;;;;;;6166345;23;20038;-83
2022/06/08 11:47:58;;;;;;;10.50;2.20;;;;;;;;;;6166013;23;20412;-83
2022/06/08 11:50:25;;;;;;;;;;;;;;;;;;6163432;23;20018;-83
2022/06/08 11:53:07;;;;;;;12.07;3.10;;;;;;;;;;6164023;23;42896;-84
2022/06/08 11:55:44;;;;;;;8.90;2.80;;;;;;;;;;6164369;23;20069;-82
2022/06/08 11:58:32;;;;;;;9.18;2.63;;;;;;;;;;6162058;23;20037;-82
2022/06/08 12:01:07;;;;;;;9.15;2.40;;;;;;;;;;6166080;23;20026;-83
2022/06/08 12:03:43;;;;;;;9.03;2.63;;;;;;;;;;6161539;23;20033;-83
2022/06/08 12:06:35;;;;;;;10.77;2.78;;;;;;;;;;6160436;23;20018;-83
2022/06/08 12:09:32;;;;;;;8.00;2.90;;;;;;;;;;6162638;23;20037;-83
2022/06/08 12:12:19;;;;;;;10.35;2.90;;;;;;;;;;6163259;23;20014;-83
2022/06/08 12:14:47;;;;;;;10.30;3.28;;;;;;;;;;6163183;23;20101;-85
2022/06/08 12:17:20;;;;;;;12.60;3.90;;;;;;;;;;6164101;23;20081;-83
2022/06/08 12:19:55;;;;;;;8.95;3.20;;;;;;;;;;6162192;23;20022;-83
2022/06/08 12:22:24;;;;;;;7.63;3.17;;;;;;;;;;6162782;23;20049;-84
2022/06/08 12:25:13;;;;;;;8.73;3.72;;;;;;;;;;6164766;23;20226;-83
2022/06/08 12:27:43;;;;;;;11.10;3.88;;;;;;;;;;6165589;23;20018;-83
2022/06/08 12:30:22;;;;;;;12.15;3.67;;;;;;;;;;6166232;23;20026;-83
2022/06/08 12:32:55;;;;;;;12.45;4.20;;;;;;;;;;6162357;23;20022;-82
2022/06/08 12:35:24;;;;;;;13.37;4.50;;;;;;;;;;6166557;23;20022;-83
2022/06/08 12:38:06;;;;;;;12.77;3.93;;;;;;;;;;6170825;23;20026;-83
2022/06/08 12:40:34;;;;;;;11.75;4.30;;;;;;;;;;6162825;23;20100;-83
2022/06/08 12:43:09;;;;;;;15.70;4.47;;;;;;;;;;6163485;23;20018;-83
2022/06/08 12:45:38;;;;;;;15.07;4.63;;;;;;;;;;6166276;23;20870;-83
2022/06/08 12:48:22;;;;;;;13.45;4.70;;;;;;;;;;6163693;23;20085;-84
2022/06/08 12:50:51;;;;;;;12.30;4.18;;;;;;;;;;6163941;23;20014;-84
2022/06/08 12:53:21;;;;;;;13.27;4.10;;;;;;;;;;6161785;23;20029;-85
2022/06/08 12:55:48;;;;;;;11.65;4.10;;;;;;;;;;6158408;23;20034;-84
2022/06/08 12:58:16;;;;;;;12.45;4.25;;;;;;;;;;6158257;23;20030;-83
2022/06/08 13:01:00;;;;;;;12.35;3.85;;;;;;;;;;6157490;23;20058;-84
2022/06/08 13:03:31;;;;;;;9.68;3.92;;;;;;;;;;6158775;23;20389;-83
2022/06/08 13:05:58;;;;;;;12.75;4.90;;;;;;;;;;6158459;23;20015;-83
2022/06/08 13:08:27;;;;;;;10.15;3.63;;;;;;;;;;6158308;23;20048;-84
2022/06/08 13:10:55;;;;;;;15.18;4.32;;;;;;;;;;6157265;23;20077;-83
2022/06/08 13:13:24;;;;;;;15.20;4.13;;;;;;;;;;6159581;23;20018;-84
2022/06/08 13:15:53;;;;;;;14.88;4.63;;;;;;;;;;6159468;23;20030;-83
2022/06/08 13:18:23;;;;;;;9.75;3.83;;;;;;;;;;6157834;23;20408;-83
2022/06/08 13:20:51;;;;;;;13.65;4.15;;;;;;;;;;6158694;23;20026;-83
2022/06/08 13:23:18;;;;;;;17.10;3.92;;;;;;;;;;6160599;23;20022;-83
2022/06/08 13:25:46;;;;;;;9.65;3.42;;;;;;;;;;6162089;23;20109;-83
2022/06/08 13:28:21;;;;;;;10.55;3.72;;;;;;;;;;6159580;23;20014;-83
2022/06/08 13:30:50;;;;;;;5.55;2.65;;;;;;;;;;6161018;23;20014;-83
2022/06/08 13:36:16;;;;;;;6.30;2.63;;;;;;;;;;6162425;23;20014;-82
2022/06/08 13:38:47;;;;;;;3.78;2.33;;;;;;;;;;6158871;23;20772;-82
2022/06/08 13:41:14;;;;;;;8.15;2.50;;;;;;;;;;6158866;23;20076;-83
2022/06/08 13:43:44;;;;;;;14.38;3.25;;;;;;;;;;6158868;23;20078;-83
2022/06/08 13:46:20;;;;;;;4.83;2.40;;;;;;;;;;6160911;23;20026;-82
2022/06/08 13:48:50;;;;;;;8.20;3.00;;;;;;;;;;6161492;23;20053;-82
2022/06/08 13:51:28;;;;;;;6.35;2.58;;;;;;;;;;6158637;23;20034;-82
2022/06/08 13:53:56;;;;;;;5.65;2.42;;;;;;;;;;6158007;23;20029;-82
2022/06/08 13:56:23;;;;;;;10.75;2.83;;;;;;;;;;6158649;23;20030;-82
2022/06/08 13:58:51;;;;;;;12.95;3.58;;;;;;;;;;6164977;23;20220;-83
2022/06/08 14:01:31;;;;;;;4.95;2.60;;;;;;;;;;6160270;23;20112;-82
2022/06/08 14:03:59;;;;;;;10.15;3.50;;;;;;;;;;6160962;23;20613;-82
2022/06/08 14:15:16;;;;;;;6.28;3.10;;;;;;;;;;6160715;23;20018;-83
2022/06/08 14:17:51;;;;;;;5.05;3.38;;;;;;;;;;6160951;23;20542;-83
2022/06/08 14:20:27;;;;;;;15.23;4.05;;;;;;;;;;6162515;23;20934;-82
2022/06/08 14:22:54;;;;;;;10.73;3.85;;;;;;;;;;6161932;23;20042;-82
2022/06/08 14:25:22;;;;;;;12.35;4.40;;;;;;;;;;6165063;23;20022;-83
2022/06/08 14:27:49;;;;;;;13.27;4.53;;;;;;;;;;6166163;23;20133;-82
2022/06/08 14:30:18;;;;;;;11.85;4.20;;;;;;;;;;6163526;23;20029;-82
2022/06/08 14:32:49;;;;;;;23.20;4.93;;;;;;;;;;6167915;23;20015;-83
2022/06/08 14:35:21;;;;;;;7.82;3.95;;;;;;;;;;6171524;23;20046;-82
2022/06/08 14:38:11;;;;;;;7.72;3.42;;;;;;;;;;6168399;23;20054;-82
2022/06/08 14:40:38;;;;;;;11.13;4.75;;;;;;;;;;6170085;23;20018;-82
2022/06/08 14:43:06;;;;;;;9.20;4.65;;;;;;;;;;6164703;23;20436;-82
2022/06/08 14:45:35;;;;;;;15.38;4.65;;;;;;;;;;6166741;23;20010;-82
2022/06/08 14:48:03;;;;;;;12.40;5.43;;;;;;;;;;6165797;23;20795;-83
2022/06/08 14:50:33;;;;;;;9.10;4.75;;;;;;;;;;6168961;23;20022;-82
2022/06/08 14:53:06;;;;;;;10.32;5.13;;;;;;;;;;6167848;23;20795;-84
2022/06/08 14:58:25;;;;;;;11.40;5.03;;;;;;;;;;6168205;23;20101;-83
2022/06/08 15:00:58;;;;;;;12.23;6.18;;;;;;;;;;6168786;23;20052;-83
2022/06/08 15:03:28;;;;;;;10.93;6.90;;;;;;;;;;6167883;23;20040;-83
2022/06/08 15:05:56;;;;;;;17.60;8.40;;;;;;;;;;6167574;23;20026;-83
2022/06/08 15:08:23;;;;;;;18.52;9.13;;;;;;;;;;6167142;23;20024;-83
2022/06/08 15:13:41;;;;;;;25.05;9.23;;;;;;;;;;6167105;23;20858;-82
2022/06/08 15:16:13;;;;;;;16.60;7.78;;;;;;;;;;6165563;23;20100;-84
2022/06/08 15:18:41;;;;;;;16.05;8.95;;;;;;;;;;6166822;23;20025;-82
2022/06/08 15:21:12;;;;;;;9.90;7.13;;;;;;;;;;6168509;23;20021;-84
2022/06/08 15:23:46;;;;;;;20.52;9.63;;;;;;;;;;6172094;23;20030;-83